Airfield :
LOGIN :

Register | Disclaimer

   EN    FR    IT 

 










Legend :    VFR   Marginal VFR   IFR   Intensive IFR   Very Intensive IFR
Visi :
Ceiling :
>= 8 km
>= 3000ft
5 to 8 km
1000 to 3000 ft
1500m to 5 km
500 to 1000 ft
800 to 1500m
200 to 500 ft
< 800m
< 200 ft
Symbols :   Thunderstorms  Fog  Heavy snow  Heavy precipitations  Wind > 20 kt
SIGMETs :     Misc.  Thunderstorms  Icing  Turbulence  Mountain Waves  Volcanic Ashes






- Airport Elevation : 13 ft
- IATA code : LYX


EGMD - Lydd

CURRENT METAR :
  • 221620Z VRB02KT CAVOK 13/09 Q1023

EXPIRED METARs :
  • 221550Z 13004KT CAVOK 13/09 Q1023
  • 221520Z 12004KT 9999 FEW018 14/10 Q1023
  • 221450Z VRB03KT 9999 FEW018 15/10 Q1023
  • 221420Z VRB03KT 9999 FEW018 14/10 Q1024

TAF TAF EGMD
Valid from the 22 at 15:00 until the 23 at 00:00 UTC


221357Z 2215/2224 VRB03KT 9999 FEW040
BECMG 2219/2221 7000
PROB40
TEMPO 2221/2224 3000 BR
ATIS : +44 1797 322 422



MET'MAP, your aeronautical weather chart ! - Copyright ORBIFLY December 2007 - Disclaimer

ORBIFLY MET'MAP TEAM :

Programming & Development : Alexandra Zaïnal
Concept & Development : Baudouin d'Aumeries
Co-Development & Prog : Marc-Olivier Méhu
Technical & hardware support : Manuel Goepfert

Contact : metmap@orbifly.com




SOURCES & CREDITS :

   NOAA